Time;durP1;ratioP1;P1;durP2;ratioP2;P2;SDS_P1;SDS_P2;PMS_P1;PMS_P2;Temp;Humidity;BMP_temperature;BMP_pressure;BME280_temperature;BME280_humidity;BME280_pressure;Samples;Min_cycle;Max_cycle;Signal;HPM_P1;HPM_P2
2021/05/29 00:02:16;;;;;;;3.20;1.30;;;16.00;97.90;;;;;;5053219;28;20021;-78
2021/05/29 00:04:43;;;;;;;4.63;1.00;;;16.00;98.10;;;;;;5053162;28;20477;-78
2021/05/29 00:07:09;;;;;;;2.63;1.13;;;16.00;98.10;;;;;;5053337;28;20104;-78
2021/05/29 00:09:36;;;;;;;1.42;1.20;;;16.00;98.20;;;;;;5052640;28;20632;-78
2021/05/29 00:12:05;;;;;;;2.35;1.40;;;16.00;98.20;;;;;;5031746;28;20076;-76
2021/05/29 00:14:32;;;;;;;6.15;1.17;;;16.00;98.30;;;;;;5050839;28;20021;-78
2021/05/29 00:16:58;;;;;;;10.45;1.42;;;16.00;98.50;;;;;;5053212;28;20017;-79
2021/05/29 00:19:24;;;;;;;2.25;1.25;;;15.90;98.40;;;;;;5052808;28;20033;-78
2021/05/29 00:21:50;;;;;;;2.97;1.27;;;15.90;98.60;;;;;;5052563;28;20496;-80
2021/05/29 00:24:16;;;;;;;2.20;1.17;;;15.90;98.60;;;;;;5048821;28;20056;-78
2021/05/29 00:26:41;;;;;;;2.75;1.33;;;15.90;98.60;;;;;;5052062;28;20096;-78
2021/05/29 00:29:07;;;;;;;1.40;1.20;;;15.90;98.60;;;;;;5051842;28;20111;-78
2021/05/29 00:31:33;;;;;;;5.43;1.38;;;15.90;98.60;;;;;;5052502;28;20021;-78
2021/05/29 00:33:59;;;;;;;5.97;1.38;;;15.90;98.70;;;;;;5052751;28;20021;-78
2021/05/29 00:36:24;;;;;;;2.17;1.23;;;15.80;98.80;;;;;;5007387;28;20027;-78
2021/05/29 00:38:50;;;;;;;3.13;1.45;;;15.90;98.70;;;;;;5052325;28;20094;-78
2021/05/29 00:41:17;;;;;;;2.60;1.60;;;15.90;98.80;;;;;;5051181;28;20047;-77
2021/05/29 00:43:44;;;;;;;1.48;1.38;;;15.90;98.90;;;;;;5051725;28;20032;-77
2021/05/29 00:46:10;;;;;;;3.20;1.38;;;15.90;98.60;;;;;;5052545;28;20096;-78
2021/05/29 00:48:37;;;;;;;5.30;1.40;;;15.90;98.60;;;;;;5052093;28;20112;-79
2021/05/29 00:51:04;;;;;;;3.05;1.50;;;15.90;98.70;;;;;;5052345;28;20021;-78
2021/05/29 00:53:31;;;;;;;2.95;1.75;;;15.90;98.80;;;;;;5052423;28;20029;-78
2021/05/29 00:55:58;;;;;;;3.17;1.17;;;15.90;98.90;;;;;;5052071;28;20040;-79
2021/05/29 00:58:25;;;;;;;1.35;1.10;;;15.90;99.00;;;;;;5051899;28;20028;-80
2021/05/29 01:00:52;;;;;;;1.10;1.00;;;15.80;99.10;;;;;;5052423;28;20021;-79
2021/05/29 01:03:18;;;;;;;1.00;0.90;;;15.90;99.30;;;;;;5052032;28;20082;-77
2021/05/29 01:05:45;;;;;;;1.48;1.10;;;15.90;99.40;;;;;;5051958;28;20025;-78
2021/05/29 01:08:11;;;;;;;2.38;0.93;;;15.80;99.50;;;;;;5052076;28;20797;-78
2021/05/29 01:10:38;;;;;;;2.58;1.00;;;15.80;99.40;;;;;;5052012;28;20048;-78
2021/05/29 01:13:06;;;;;;;2.83;1.30;;;15.80;99.40;;;;;;5034369;28;20028;-77
2021/05/29 01:15:39;;;;;;;0.98;0.98;;;15.90;99.50;;;;;;5051951;28;20123;-77
2021/05/29 01:18:11;;;;;;;4.38;1.50;;;15.90;99.80;;;;;;5051872;28;20033;-78
2021/05/29 01:20:38;;;;;;;3.67;0.82;;;15.90;99.60;;;;;;5051906;28;20086;-78
2021/05/29 01:23:05;;;;;;;1.83;1.00;;;16.00;99.70;;;;;;5050804;28;20025;-79
2021/05/29 01:25:37;;;;;;;6.25;1.38;;;16.00;99.50;;;;;;5051807;28;20060;-79
2021/05/29 01:28:24;;;;;;;1.65;1.40;;;15.90;99.50;;;;;;5051864;28;20009;-78
2021/05/29 01:31:03;;;;;;;1.52;1.20;;;16.00;99.80;;;;;;5044198;28;20424;-79
2021/05/29 01:33:32;;;;;;;1.52;1.10;;;16.00;99.60;;;;;;5051891;28;20023;-78
2021/05/29 01:36:02;;;;;;;8.35;1.50;;;15.90;99.70;;;;;;5051921;28;20021;-78
2021/05/29 01:38:28;;;;;;;1.60;1.08;;;16.00;99.50;;;;;;5051269;28;20388;-78
2021/05/29 01:41:03;;;;;;;4.72;1.50;;;16.00;99.40;;;;;;5033902;28;20032;-78
2021/05/29 01:43:28;;;;;;;2.45;1.50;;;15.90;99.80;;;;;;5051375;28;20021;-78
2021/05/29 01:45:55;;;;;;;2.50;1.52;;;15.90;99.90;;;;;;5051374;28;20491;-77
2021/05/29 01:48:21;;;;;;;2.35;1.10;;;16.00;99.90;;;;;;5051815;28;20033;-80
2021/05/29 01:50:48;;;;;;;2.25;1.13;;;15.90;99.90;;;;;;5051782;28;20116;-78
2021/05/29 01:53:18;;;;;;;3.83;1.02;;;15.90;99.90;;;;;;5051894;28;20469;-79
2021/05/29 01:55:46;;;;;;;1.52;1.10;;;15.90;99.90;;;;;;5051241;28;20074;-79
2021/05/29 01:58:12;;;;;;;2.33;1.30;;;15.90;99.90;;;;;;5051450;28;20033;-80
2021/05/29 02:00:38;;;;;;;1.27;1.17;;;15.80;99.90;;;;;;5052533;28;20050;-79
2021/05/29 02:03:04;;;;;;;2.08;1.35;;;15.80;99.90;;;;;;5055929;28;20028;-79
2021/05/29 02:05:33;;;;;;;3.92;1.10;;;15.80;99.90;;;;;;5055145;28;20523;-78
2021/05/29 02:08:01;;;;;;;3.08;1.38;;;15.80;99.90;;;;;;5037382;28;20088;-78
2021/05/29 02:10:28;;;;;;;3.95;1.30;;;15.80;99.90;;;;;;5037308;28;20041;-79
2021/05/29 02:12:56;;;;;;;4.10;1.52;;;15.70;99.90;;;;;;5055308;28;20392;-79
2021/05/29 02:15:25;;;;;;;2.38;1.35;;;15.70;99.90;;;;;;5055312;28;20067;-79
2021/05/29 02:17:52;;;;;;;2.50;1.33;;;15.70;99.90;;;;;;5054588;28;20024;-78
2021/05/29 02:20:28;;;;;;;1.50;1.30;;;15.70;99.90;;;;;;5054180;28;20028;-79
2021/05/29 02:22:54;;;;;;;2.70;1.52;;;15.70;99.90;;;;;;5054771;28;20025;-79
2021/05/29 02:25:19;;;;;;;2.50;1.38;;;15.60;99.90;;;;;;5055151;28;20033;-76
2021/05/29 02:27:45;;;;;;;3.63;1.35;;;15.60;99.90;;;;;;5055080;28;20091;-78
2021/05/29 02:30:11;;;;;;;2.92;1.10;;;15.70;99.90;;;;;;5054948;28;20021;-77
2021/05/29 02:32:37;;;;;;;2.47;1.60;;;15.60;99.90;;;;;;5054998;28;20025;-78
2021/05/29 02:35:03;;;;;;;4.75;1.30;;;15.60;99.90;;;;;;5037096;28;20071;-78
2021/05/29 02:37:29;;;;;;;3.17;1.27;;;15.60;99.90;;;;;;5055003;28;20021;-77
2021/05/29 02:39:55;;;;;;;8.27;1.30;;;15.60;99.90;;;;;;5054428;28;20071;-78
2021/05/29 02:42:20;;;;;;;2.97;1.30;;;15.50;99.90;;;;;;5054349;28;20087;-78
2021/05/29 02:44:46;;;;;;;2.28;1.50;;;15.50;99.90;;;;;;5054535;28;20021;-78
2021/05/29 02:47:12;;;;;;;4.65;1.30;;;15.50;99.90;;;;;;5054305;28;20032;-76
2021/05/29 02:49:38;;;;;;;7.65;1.20;;;15.50;99.90;;;;;;5054749;28;20021;-77
2021/05/29 02:52:04;;;;;;;4.22;1.20;;;15.50;99.90;;;;;;5054503;28;20469;-77
2021/05/29 02:54:30;;;;;;;4.38;1.50;;;15.50;99.90;;;;;;5054717;28;20033;-77
2021/05/29 02:56:55;;;;;;;3.10;1.40;;;15.50;99.90;;;;;;5054500;28;20055;-78
2021/05/29 02:59:21;;;;;;;7.47;1.50;;;15.50;99.90;;;;;;5054324;28;20065;-78
2021/05/29 03:01:47;;;;;;;1.63;1.30;;;15.50;99.90;;;;;;5055107;28;20428;-77
2021/05/29 03:04:13;;;;;;;3.22;1.58;;;15.60;99.90;;;;;;5054596;28;20037;-77
2021/05/29 03:06:38;;;;;;;7.18;1.70;;;15.60;99.90;;;;;;5054471;28;20074;-78
2021/05/29 03:09:04;;;;;;;3.70;1.40;;;15.60;99.90;;;;;;5053659;28;20374;-78
2021/05/29 03:11:34;;;;;;;6.40;1.92;;;15.60;99.90;;;;;;5053274;28;20051;-77
2021/05/29 03:14:00;;;;;;;2.40;1.50;;;15.60;99.90;;;;;;5053113;28;20474;-77
2021/05/29 03:16:26;;;;;;;4.07;1.25;;;15.60;99.90;;;;;;5054151;28;20078;-77
2021/05/29 03:18:52;;;;;;;3.17;1.63;;;15.60;99.90;;;;;;5053921;28;20501;-77
2021/05/29 03:21:18;;;;;;;1.77;1.60;;;15.60;99.90;;;;;;5053711;28;20029;-77
2021/05/29 03:23:44;;;;;;;2.25;1.38;;;15.60;99.90;;;;;;5052744;28;20033;-77
2021/05/29 03:26:10;;;;;;;5.18;1.40;;;15.60;99.90;;;;;;5053737;28;20055;-78
2021/05/29 03:28:35;;;;;;;3.33;1.63;;;15.60;99.90;;;;;;5053779;28;20028;-78
2021/05/29 03:31:01;;;;;;;4.82;1.73;;;15.60;99.90;;;;;;5053426;28;20531;-77
2021/05/29 03:33:27;;;;;;;2.53;1.83;;;15.60;99.90;;;;;;5053881;28;20418;-77
2021/05/29 03:35:53;;;;;;;2.03;1.45;;;15.60;99.90;;;;;;5053926;28;20098;-78
2021/05/29 03:38:19;;;;;;;4.00;1.50;;;15.60;99.90;;;;;;5053973;28;20441;-77
2021/05/29 03:40:46;;;;;;;2.25;1.83;;;15.70;99.90;;;;;;5053393;28;20041;-77
2021/05/29 03:43:12;;;;;;;7.70;1.60;;;15.80;99.90;;;;;;5052912;28;20055;-77
2021/05/29 03:45:38;;;;;;;1.77;1.40;;;15.80;99.90;;;;;;5053439;28;20118;-77
2021/05/29 03:48:06;;;;;;;5.05;1.63;;;15.80;99.90;;;;;;5053091;28;20487;-78
2021/05/29 03:50:33;;;;;;;7.28;1.38;;;15.90;99.90;;;;;;5038994;28;20037;-76
2021/05/29 03:52:59;;;;;;;3.05;1.80;;;15.90;99.90;;;;;;5053051;28;20385;-76
2021/05/29 03:55:25;;;;;;;5.45;1.48;;;16.00;99.90;;;;;;5053479;28;20389;-77
2021/05/29 03:57:52;;;;;;;1.98;1.25;;;16.10;99.90;;;;;;5053364;28;20017;-76
2021/05/29 04:00:20;;;;;;;2.08;1.33;;;16.20;99.90;;;;;;5053450;28;20039;-77
2021/05/29 04:02:50;;;;;;;4.28;1.85;;;16.20;99.90;;;;;;5052975;28;20090;-77
2021/05/29 04:05:17;;;;;;;17.25;2.00;;;16.30;99.90;;;;;;5053140;28;20482;-78
2021/05/29 04:07:43;;;;;;;2.00;1.60;;;16.40;99.90;;;;;;5052743;28;20021;-78
2021/05/29 04:10:11;;;;;;;1.73;1.30;;;16.50;99.90;;;;;;5052855;28;20055;-77
2021/05/29 04:12:38;;;;;;;2.83;1.33;;;16.60;99.90;;;;;;5052755;28;20083;-78
2021/05/29 04:15:05;;;;;;;3.83;1.60;;;16.70;99.90;;;;;;5053012;28;20120;-77
2021/05/29 04:17:31;;;;;;;3.08;1.40;;;16.80;99.90;;;;;;5052870;28;20021;-78
2021/05/29 04:19:57;;;;;;;5.15;1.52;;;16.80;99.90;;;;;;5052902;28;20112;-78
2021/05/29 04:22:22;;;;;;;2.90;1.30;;;16.90;99.90;;;;;;5052924;28;20079;-77
2021/05/29 04:24:49;;;;;;;2.25;1.52;;;16.90;99.90;;;;;;5052908;28;20021;-77
2021/05/29 04:27:16;;;;;;;2.33;1.73;;;17.00;99.90;;;;;;5034481;28;20115;-77
2021/05/29 04:29:42;;;;;;;6.22;2.38;;;17.00;99.90;;;;;;5052350;28;20049;-78
2021/05/29 04:32:08;;;;;;;3.25;2.00;;;17.00;99.90;;;;;;5058575;28;20444;-77
2021/05/29 04:34:34;;;;;;;5.68;1.88;;;17.00;99.90;;;;;;5052625;28;20115;-76
2021/05/29 04:37:00;;;;;;;2.05;1.48;;;17.00;99.90;;;;;;5052659;28;20465;-79
2021/05/29 04:39:25;;;;;;;2.30;1.48;;;17.10;99.90;;;;;;5052291;28;20477;-78
2021/05/29 04:41:51;;;;;;;3.15;1.60;;;17.10;99.90;;;;;;5024476;28;20028;-78
2021/05/29 04:44:17;;;;;;;4.05;1.60;;;17.20;99.90;;;;;;5052604;28;20021;-78
2021/05/29 04:46:50;;;;;;;7.30;1.42;;;17.30;99.90;;;;;;5034714;28;20503;-76
2021/05/29 04:49:21;;;;;;;2.40;1.50;;;17.50;99.90;;;;;;5052347;28;20024;-76
2021/05/29 04:51:47;;;;;;;1.47;1.10;;;17.60;99.90;;;;;;5052309;28;20485;-77
2021/05/29 04:54:13;;;;;;;9.93;1.45;;;17.80;99.90;;;;;;5050755;28;20540;-77
2021/05/29 04:56:39;;;;;;;6.15;1.67;;;17.90;99.90;;;;;;5052478;28;20108;-77
2021/05/29 04:59:05;;;;;;;2.78;1.60;;;18.10;99.90;;;;;;5052322;28;20389;-76
2021/05/29 05:01:31;;;;;;;2.28;1.55;;;18.10;99.90;;;;;;5051928;28;20029;-77
2021/05/29 05:04:01;;;;;;;2.78;1.25;;;18.20;99.80;;;;;;5051208;28;20554;-76
2021/05/29 05:06:27;;;;;;;8.07;1.20;;;18.20;99.60;;;;;;5051809;28;20029;-76
2021/05/29 05:08:54;;;;;;;4.45;1.58;;;18.20;99.60;;;;;;5052075;28;20021;-77
2021/05/29 05:11:20;;;;;;;2.97;1.38;;;18.20;99.70;;;;;;5033727;28;20076;-78
2021/05/29 05:13:46;;;;;;;1.77;1.52;;;18.20;99.70;;;;;;5051531;28;20493;-78
2021/05/29 05:16:13;;;;;;;2.03;1.10;;;18.20;99.60;;;;;;5051808;28;20029;-77
2021/05/29 05:18:39;;;;;;;1.40;1.30;;;18.30;99.50;;;;;;5033977;28;20024;-76
2021/05/29 05:21:05;;;;;;;4.25;1.40;;;18.40;99.60;;;;;;5033851;28;20171;-77
2021/05/29 05:23:31;;;;;;;1.73;1.42;;;18.50;99.50;;;;;;5052086;28;20020;-78
2021/05/29 05:25:57;;;;;;;3.33;1.40;;;18.60;99.60;;;;;;5051617;28;20477;-77
2021/05/29 05:28:27;;;;;;;3.78;1.73;;;18.70;99.50;;;;;;5051294;28;20029;-77
2021/05/29 05:31:00;;;;;;;4.15;1.70;;;18.70;99.60;;;;;;5052031;28;20419;-77
2021/05/29 05:33:26;;;;;;;4.35;1.35;;;18.70;99.50;;;;;;5051722;28;20048;-75
2021/05/29 05:35:53;;;;;;;2.03;1.30;;;18.70;99.50;;;;;;5051485;28;20029;-77
2021/05/29 05:38:19;;;;;;;2.47;1.40;;;18.70;99.60;;;;;;5051740;28;20025;-77
2021/05/29 05:40:45;;;;;;;1.80;1.38;;;18.80;99.70;;;;;;5051815;28;20053;-77
2021/05/29 05:43:11;;;;;;;2.67;1.55;;;18.80;99.30;;;;;;5051256;28;20064;-77
2021/05/29 05:45:37;;;;;;;1.88;1.13;;;19.00;99.40;;;;;;5051681;28;20017;-77
2021/05/29 05:48:03;;;;;;;2.40;1.38;;;19.20;99.20;;;;;;5051683;28;20028;-77
2021/05/29 05:50:30;;;;;;;1.38;1.10;;;19.40;98.90;;;;;;5051115;28;20480;-76
2021/05/29 05:52:56;;;;;;;4.80;1.40;;;19.50;98.70;;;;;;5051543;28;20043;-77
2021/05/29 05:55:21;;;;;;;5.40;1.27;;;19.50;99.00;;;;;;5051132;28;20560;-78
2021/05/29 05:57:47;;;;;;;2.53;1.52;;;19.60;98.90;;;;;;5051809;28;20024;-77
2021/05/29 06:00:16;;;;;;;1.77;1.40;;;19.70;98.60;;;;;;5051691;28;20109;-77
2021/05/29 06:02:42;;;;;;;1.35;1.15;;;19.80;98.80;;;;;;5051492;28;20017;-76
2021/05/29 06:05:12;;;;;;;5.18;1.50;;;20.00;98.50;;;;;;5051116;28;20082;-76
2021/05/29 06:07:38;;;;;;;1.58;1.30;;;20.10;98.70;;;;;;5051080;28;20104;-77
2021/05/29 06:10:05;;;;;;;1.08;0.98;;;20.50;98.40;;;;;;5049623;28;20135;-78
2021/05/29 06:12:33;;;;;;;5.97;1.20;;;20.70;98.00;;;;;;5051572;28;20027;-78
2021/05/29 06:18:06;;;;;;;2.60;1.25;;;21.10;97.40;;;;;;5051082;28;20098;-76
2021/05/29 06:20:33;;;;;;;4.88;1.02;;;21.20;97.20;;;;;;5051239;28;20128;-77
2021/05/29 06:22:59;;;;;;;4.72;1.20;;;21.50;97.10;;;;;;5051600;28;20017;-79
2021/05/29 06:25:25;;;;;;;2.33;1.30;;;21.60;96.50;;;;;;5051758;28;20052;-77
2021/05/29 06:27:51;;;;;;;3.95;1.30;;;21.60;96.70;;;;;;5050634;28;20072;-79
2021/05/29 06:30:17;;;;;;;1.75;1.25;;;21.90;96.20;;;;;;5050894;28;20470;-78
2021/05/29 06:32:42;;;;;;;1.35;1.17;;;22.80;94.90;;;;;;5051301;28;20477;-80
2021/05/29 06:35:09;;;;;;;2.10;1.25;;;23.80;94.40;;;;;;5051135;28;20021;-75
2021/05/29 06:37:36;;;;;;;1.83;0.77;;;24.70;93.10;;;;;;5051155;28;20529;-78
2021/05/29 06:40:08;;;;;;;3.20;1.30;;;25.50;91.70;;;;;;5051045;28;20060;-77
2021/05/29 06:42:34;;;;;;;1.13;0.85;;;25.70;91.80;;;;;;5050488;28;20028;-76
2021/05/29 06:45:00;;;;;;;4.93;1.25;;;25.40;91.00;;;;;;5032930;28;20428;-76
2021/05/29 06:47:26;;;;;;;2.63;1.13;;;24.80;91.70;;;;;;5051801;28;20029;-78
2021/05/29 06:49:52;;;;;;;2.10;1.13;;;24.30;92.00;;;;;;5055137;28;20104;-79
2021/05/29 06:52:21;;;;;;;3.33;1.77;;;23.90;92.30;;;;;;5054758;28;20497;-79
2021/05/29 07:00:06;;;;;;;7.47;1.33;;;23.40;92.90;;;;;;5053959;28;19923;-77
2021/05/29 07:02:33;;;;;;;9.30;1.30;;;23.40;92.30;;;;;;5053717;28;20078;-77
2021/05/29 07:04:59;;;;;;;1.90;1.25;;;23.40;92.50;;;;;;5054067;28;20021;-79
2021/05/29 07:07:24;;;;;;;1.25;1.10;;;23.50;92.90;;;;;;5068115;28;20035;-80
2021/05/29 07:09:50;;;;;;;1.80;0.98;;;23.60;92.10;;;;;;5072291;28;20503;-79
2021/05/29 07:12:16;;;;;;;1.77;1.05;;;23.60;92.10;;;;;;5052063;28;20025;-81
2021/05/29 07:14:41;;;;;;;4.90;1.02;;;23.50;92.10;;;;;;5072699;28;20047;-83
2021/05/29 07:17:08;;;;;;;3.17;0.80;;;23.10;92.70;;;;;;5050651;28;20544;-83
2021/05/29 07:19:33;;;;;;;4.20;0.80;;;23.00;92.00;;;;;;5042052;28;20396;-80
2021/05/29 07:21:59;;;;;;;1.95;0.75;;;22.90;92.40;;;;;;5061457;28;20029;-80
2021/05/29 07:24:26;;;;;;;3.25;1.10;;;22.80;92.60;;;;;;5071196;28;20029;-81
2021/05/29 07:26:53;;;;;;;3.55;1.50;;;22.70;93.20;;;;;;5066817;28;20427;-82
2021/05/29 07:29:19;;;;;;;3.28;1.30;;;22.70;93.60;;;;;;5069647;28;20487;-82
2021/05/29 07:31:45;;;;;;;1.48;1.00;;;22.60;94.20;;;;;;5069019;28;20016;-78
2021/05/29 07:34:11;;;;;;;5.85;1.20;;;22.50;94.20;;;;;;5069695;28;20020;-80
2021/05/29 07:36:38;;;;;;;1.73;1.15;;;22.40;93.90;;;;;;5070151;28;20070;-79
2021/05/29 07:39:05;;;;;;;1.00;0.90;;;22.30;94.00;;;;;;5064526;28;20027;-78
2021/05/29 07:41:32;;;;;;;1.38;1.02;;;22.40;94.10;;;;;;5061442;28;20037;-78
2021/05/29 07:43:58;;;;;;;3.88;1.60;;;22.30;94.30;;;;;;5067386;28;20017;-82
2021/05/29 07:46:24;;;;;;;3.13;1.10;;;22.40;94.80;;;;;;5071440;28;20136;-77
2021/05/29 07:48:51;;;;;;;11.70;1.20;;;22.40;94.00;;;;;;5069550;28;20013;-79
2021/05/29 07:51:17;;;;;;;2.58;1.10;;;22.30;94.10;;;;;;5072533;28;20021;-80
2021/05/29 07:53:43;;;;;;;5.40;1.20;;;22.40;94.10;;;;;;5066179;28;20603;-80
2021/05/29 07:56:17;;;;;;;6.60;1.20;;;22.50;93.90;;;;;;5071804;28;20077;-79
2021/05/29 07:58:46;;;;;;;5.53;1.00;;;22.70;93.70;;;;;;5061355;28;20021;-79
2021/05/29 08:01:12;;;;;;;3.10;1.00;;;22.80;93.70;;;;;;5041614;28;20178;-78
2021/05/29 08:03:38;;;;;;;3.50;1.40;;;23.00;93.80;;;;;;5059746;28;20095;-77
2021/05/29 08:06:10;;;;;;;1.73;1.23;;;23.30;93.40;;;;;;5062437;28;20021;-78
2021/05/29 08:08:36;;;;;;;2.65;1.50;;;23.40;93.40;;;;;;5067042;28;20527;-78
2021/05/29 08:11:03;;;;;;;1.65;1.10;;;23.60;93.80;;;;;;5048803;28;20045;-77
2021/05/29 08:13:31;;;;;;;5.30;1.30;;;23.70;92.40;;;;;;5069620;28;20638;-76
2021/05/29 08:15:56;;;;;;;2.58;1.30;;;23.90;92.60;;;;;;5067922;28;20032;-79
2021/05/29 08:18:22;;;;;;;2.72;0.90;;;24.10;92.80;;;;;;5070115;28;20036;-78
2021/05/29 08:20:51;;;;;;;4.25;1.50;;;24.30;91.30;;;;;;5068292;28;20108;-79
2021/05/29 08:23:17;;;;;;;5.45;1.73;;;24.30;91.40;;;;;;5057717;28;20024;-80
2021/05/29 08:25:43;;;;;;;1.83;1.45;;;24.50;91.30;;;;;;5061814;28;20048;-81
2021/05/29 08:28:09;;;;;;;1.83;1.30;;;24.60;91.50;;;;;;5063081;28;20465;-81
2021/05/29 08:30:35;;;;;;;1.10;1.00;;;24.70;91.20;;;;;;5041234;28;20092;-78
2021/05/29 08:33:02;;;;;;;4.30;1.45;;;25.00;89.20;;;;;;5052591;28;20033;-80
2021/05/29 08:35:28;;;;;;;1.42;0.80;;;25.30;89.60;;;;;;5069966;28;20052;-80
2021/05/29 08:37:54;;;;;;;3.10;1.20;;;25.50;89.20;;;;;;5065279;28;20010;-77
2021/05/29 08:40:21;;;;;;;5.05;1.42;;;25.90;89.20;;;;;;5068667;28;20052;-80
2021/05/29 08:42:47;;;;;;;1.55;0.82;;;26.10;87.90;;;;;;5063789;28;20020;-79
2021/05/29 08:45:16;;;;;;;2.10;1.10;;;26.10;87.30;;;;;;5060153;28;20104;-80
2021/05/29 08:47:42;;;;;;;5.53;1.10;;;26.00;87.90;;;;;;5051830;28;20052;-78
2021/05/29 08:50:09;;;;;;;1.08;0.90;;;25.80;87.70;;;;;;5063480;28;20481;-80
2021/05/29 08:52:38;;;;;;;2.05;0.93;;;25.80;87.70;;;;;;5069144;28;20108;-82
2021/05/29 08:55:09;;;;;;;3.55;0.85;;;25.90;87.80;;;;;;5066498;28;20045;-80
2021/05/29 08:57:35;;;;;;;;;;;26.00;88.00;;;;;;5062921;28;20513;-77
2021/05/29 09:00:02;;;;;;;2.22;0.88;;;26.20;87.40;;;;;;5061585;28;19947;-77
2021/05/29 09:02:29;;;;;;;7.53;1.00;;;26.20;86.90;;;;;;5066648;28;20480;-77
2021/05/29 09:05:09;;;;;;;7.47;1.13;;;26.20;86.50;;;;;;5063545;28;20043;-77
2021/05/29 09:07:35;;;;;;;4.50;1.10;;;26.30;88.00;;;;;;5068895;28;20070;-77
2021/05/29 09:10:18;;;;;;;2.65;1.02;;;26.30;89.60;;;;;;5061875;28;20045;-76
2021/05/29 09:13:07;;;;;;;4.00;1.08;;;26.40;91.10;;;;;;5058259;28;20520;-78
2021/05/29 09:15:53;;;;;;;2.53;1.30;;;26.40;90.10;;;;;;5046036;28;20116;-75
2021/05/29 09:18:36;;;;;;;7.97;1.33;;;26.20;90.00;;;;;;5051721;28;20385;-79
2021/05/29 09:21:24;;;;;;;2.45;1.20;;;26.40;90.00;;;;;;5051694;28;20469;-83
2021/05/29 09:24:00;;;;;;;3.47;1.85;;;26.60;91.40;;;;;;5030247;28;20523;-80
2021/05/29 09:26:50;;;;;;;2.13;1.70;;;26.80;91.80;;;;;;5028801;28;20040;-80
2021/05/29 09:29:24;;;;;;;8.65;2.80;;;27.10;92.30;;;;;;5033483;28;20100;-81
2021/05/29 09:32:03;;;;;;;5.85;2.00;;;27.00;92.20;;;;;;5048248;28;20049;-81
2021/05/29 09:34:41;;;;;;;3.80;1.42;;;27.10;92.50;;;;;;5032991;28;20047;-80
2021/05/29 09:37:14;;;;;;;3.85;1.20;;;27.10;91.70;;;;;;5048938;28;20039;-79
2021/05/29 09:39:43;;;;;;;3.72;1.10;;;27.40;90.80;;;;;;5051400;28;20512;-81
2021/05/29 09:42:10;;;;;;;7.53;1.30;;;27.70;88.80;;;;;;5051981;28;20144;-80
2021/05/29 09:44:37;;;;;;;7.97;1.20;;;27.90;89.20;;;;;;5051339;28;20029;-80
2021/05/29 09:47:05;;;;;;;5.65;1.40;;;27.90;90.30;;;;;;5033667;28;20029;-80
2021/05/29 09:50:03;;;;;;;3.20;1.40;;;27.80;90.90;;;;;;5050769;28;20029;-81
2021/05/29 09:52:40;;;;;;;7.70;1.60;;;27.50;91.90;;;;;;5044049;28;20094;-80
2021/05/29 09:55:13;;;;;;;8.88;1.60;;;27.30;92.00;;;;;;5050487;28;20021;-79
2021/05/29 09:57:53;;;;;;;9.00;1.60;;;27.20;91.10;;;;;;5050244;28;20071;-78
2021/05/29 10:00:19;;;;;;;2.25;1.60;;;27.10;91.80;;;;;;5030850;28;20095;-79
2021/05/29 10:02:59;;;;;;;9.00;1.75;;;27.10;91.80;;;;;;5050775;28;20029;-79
2021/05/29 10:05:32;;;;;;;7.40;1.75;;;27.00;92.40;;;;;;5050447;28;20507;-80
2021/05/29 10:07:59;;;;;;;5.10;2.60;;;27.20;92.60;;;;;;5046721;28;20025;-79
2021/05/29 10:10:26;;;;;;;2.53;1.45;;;27.20;92.80;;;;;;5048208;28;20053;-79
2021/05/29 10:12:52;;;;;;;3.20;1.42;;;27.50;92.80;;;;;;5051309;28;20040;-79
2021/05/29 10:15:18;;;;;;;4.68;1.52;;;27.40;92.40;;;;;;5051346;28;20054;-79
2021/05/29 10:17:45;;;;;;;8.07;1.67;;;27.40;92.50;;;;;;5050602;28;20021;-79
2021/05/29 10:20:12;;;;;;;6.13;1.45;;;27.40;92.90;;;;;;5050527;28;20037;-80
2021/05/29 10:22:39;;;;;;;8.73;1.52;;;27.40;92.00;;;;;;5052558;28;20029;-79
2021/05/29 10:25:16;;;;;;;3.80;1.55;;;27.30;91.70;;;;;;5051560;28;20021;-80
2021/05/29 10:27:48;;;;;;;2.50;1.48;;;27.30;91.70;;;;;;5054883;28;20021;-80
2021/05/29 10:30:14;;;;;;;;;;;27.30;91.90;;;;;;5054736;28;20037;-81
2021/05/29 10:32:40;;;;;;;4.60;2.10;;;27.20;91.40;;;;;;5054126;28;20003;-80
2021/05/29 10:35:10;;;;;;;2.63;1.55;;;27.20;91.30;;;;;;5054151;28;20092;-80
2021/05/29 10:37:40;;;;;;;6.80;1.52;;;27.50;90.70;;;;;;5036501;28;20028;-79
2021/05/29 10:40:16;;;;;;;5.15;1.85;;;27.70;90.70;;;;;;5054053;28;20083;-81
2021/05/29 10:42:42;;;;;;;6.00;3.10;;;27.80;90.80;;;;;;5053158;28;20033;-79
2021/05/29 10:45:24;;;;;;;13.00;4.15;;;28.00;90.10;;;;;;5053260;28;20028;-80
2021/05/29 10:48:03;;;;;;;7.35;3.47;;;27.90;87.20;;;;;;5053798;28;20025;-80
2021/05/29 10:50:44;;;;;;;8.30;4.53;;;27.90;88.80;;;;;;5052547;28;20032;-78
2021/05/29 10:53:30;;;;;;;9.90;4.47;;;28.00;87.50;;;;;;5053141;28;20071;-77
2021/05/29 10:56:14;;;;;;;21.50;6.03;;;27.80;88.20;;;;;;5053686;28;20481;-77
2021/05/29 10:58:59;;;;;;;8.48;5.53;;;27.70;87.50;;;;;;5046997;28;20033;-78
2021/05/29 11:01:51;;;;;;;5.70;2.50;;;27.50;87.00;;;;;;5050302;28;20029;-79
2021/05/29 11:04:26;;;;;;;9.05;4.63;;;27.20;90.30;;;;;;5053915;28;20028;-78
2021/05/29 11:07:07;;;;;;;6.43;4.10;;;26.80;90.10;;;;;;5053562;28;20378;-79
2021/05/29 11:09:52;;;;;;;8.80;4.32;;;26.80;90.30;;;;;;5052678;28;20037;-79
2021/05/29 11:12:18;;;;;;;12.13;4.15;;;26.70;90.20;;;;;;5044134;28;20021;-80
2021/05/29 11:14:48;;;;;;;4.82;3.10;;;26.80;88.40;;;;;;5053188;28;20154;-80
2021/05/29 11:17:17;;;;;;;6.10;2.95;;;26.70;87.60;;;;;;5053258;28;20024;-80
2021/05/29 11:19:59;;;;;;;3.38;2.38;;;26.50;87.60;;;;;;5053032;28;20028;-78
2021/05/29 11:22:25;;;;;;;6.07;3.53;;;26.30;87.30;;;;;;5049183;28;20020;-79
2021/05/29 11:24:54;;;;;;;5.13;3.67;;;26.30;85.90;;;;;;5054026;28;20029;-81
2021/05/29 11:27:24;;;;;;;6.68;3.90;;;26.40;86.50;;;;;;5034864;28;20021;-80
2021/05/29 11:30:03;;;;;;;6.40;2.97;;;26.40;86.40;;;;;;5053151;28;20078;-79
2021/05/29 11:35:31;;;;;;;9.18;3.80;;;26.40;85.60;;;;;;5043719;28;20056;-77
2021/05/29 11:38:13;;;;;;;8.93;3.72;;;26.20;86.10;;;;;;5052717;28;20028;-79
2021/05/29 11:40:55;;;;;;;9.55;3.63;;;26.10;85.30;;;;;;5053205;28;20041;-78
2021/05/29 11:43:50;;;;;;;8.80;3.47;;;26.10;86.10;;;;;;5052910;28;20023;-78
2021/05/29 11:46:20;;;;;;;4.03;2.75;;;26.20;85.70;;;;;;5053266;28;20531;-78
2021/05/29 13:30:17;;;;;;;;;;;;;;;;;;;;;
2021/05/29 15:54:53;;;;;;;5.43;0.80;;;19.90;94.90;;;;;;4876833;29;20046;-86
2021/05/29 16:04:42;;;;;;;3.20;0.70;;;19.70;95.20;;;;;;4904351;29;20182;-88
2021/05/29 17:03:22;;;;;;;1.00;0.90;;;18.40;98.60;;;;;;4882149;29;20642;-85
